createdAt,value
2023-04-11T00:00:04.920Z,7.34
2023-04-11T00:02:39.181Z,7.29
2023-04-11T00:05:12.301Z,7.37
2023-04-11T00:07:45.311Z,7.37
2023-04-11T00:10:18.309Z,7.35
2023-04-11T00:12:56.621Z,7.47
2023-04-11T00:15:32.725Z,7.40
2023-04-11T00:18:06.985Z,7.48
2023-04-11T00:20:39.974Z,7.67
2023-04-11T00:23:13.148Z,7.55
2023-04-11T00:25:46.343Z,7.35
2023-04-11T00:28:20.999Z,7.55
2023-04-11T00:30:53.998Z,7.72
2023-04-11T00:33:26.902Z,7.57
2023-04-11T00:35:59.941Z,7.55
2023-04-11T00:38:33.486Z,7.65
2023-04-11T00:41:06.648Z,7.53
2023-04-11T00:43:41.368Z,7.48
2023-04-11T00:48:48.234Z,7.99
2023-04-11T00:51:21.488Z,8.02
2023-04-11T00:53:54.360Z,7.71
2023-04-11T00:56:27.346Z,7.56
2023-04-11T00:59:02.323Z,7.55
2023-04-11T01:01:36.429Z,7.56
2023-04-11T01:04:09.587Z,7.79
2023-04-11T01:06:42.721Z,7.57
2023-04-11T01:09:16.138Z,7.60
2023-04-11T01:11:50.159Z,7.49
2023-04-11T01:14:26.710Z,7.39
2023-04-11T01:17:02.323Z,7.38
2023-04-11T01:19:35.670Z,7.30
2023-04-11T01:22:09.071Z,7.26
2023-04-11T01:24:43.779Z,7.24
2023-04-11T01:27:16.938Z,7.30
2023-04-11T01:29:50.078Z,7.36
2023-04-11T01:32:23.551Z,7.36
2023-04-11T01:34:57.836Z,7.37
2023-04-11T01:37:31.088Z,7.27
2023-04-11T01:40:06.489Z,7.28
2023-04-11T01:42:39.903Z,7.23
2023-04-11T01:45:14.216Z,7.31
2023-04-11T01:50:20.577Z,7.21
2023-04-11T01:52:53.945Z,7.30
2023-04-11T01:55:28.607Z,7.25
2023-04-11T01:58:02.190Z,7.29
2023-04-11T02:00:37.123Z,7.29
2023-04-11T02:03:10.189Z,7.28
2023-04-11T02:05:43.645Z,7.25
2023-04-11T02:08:16.674Z,7.28
2023-04-11T02:10:51.490Z,7.24
2023-04-11T02:13:25.116Z,7.25
2023-04-11T02:15:58.329Z,7.17
2023-04-11T02:18:31.379Z,7.13
2023-04-11T02:21:04.729Z,7.25
2023-04-11T02:23:37.867Z,7.30
2023-04-11T02:26:12.438Z,7.20
2023-04-11T02:28:45.540Z,7.28
2023-04-11T02:31:18.978Z,7.25
2023-04-11T02:33:52.021Z,7.11
2023-04-11T02:36:24.965Z,7.09
2023-04-11T02:38:57.948Z,7.12
2023-04-11T02:41:32.544Z,7.07
2023-04-11T02:44:05.933Z,7.07
2023-04-11T02:46:38.997Z,7.21
2023-04-11T02:49:12.275Z,7.18
2023-04-11T02:51:45.300Z,7.13
2023-04-11T02:54:18.161Z,7.11
2023-04-11T02:56:52.806Z,6.99
2023-04-11T02:59:25.892Z,7.09
2023-04-11T03:01:59.744Z,7.15
2023-04-11T03:04:32.976Z,7.12
2023-04-11T03:07:06.241Z,7.16
2023-04-11T03:09:39.158Z,7.11
2023-04-11T03:12:14.554Z,7.20
2023-04-11T03:14:48.022Z,7.01
2023-04-11T03:17:21.964Z,6.91
2023-04-11T03:19:55.016Z,7.03
2023-04-11T03:22:30.301Z,7.12
2023-04-11T03:25:03.170Z,7.01
2023-04-11T03:27:40.121Z,7.06
2023-04-11T03:30:13.890Z,7.00
2023-04-11T03:32:47.149Z,7.23
2023-04-11T03:35:20.840Z,6.95
2023-04-11T03:37:53.818Z,6.92
2023-04-11T03:40:29.025Z,7.11
2023-04-11T03:43:04.839Z,6.98
2023-04-11T03:45:37.961Z,7.01
2023-04-11T03:48:11.094Z,7.06
2023-04-11T03:50:44.359Z,7.14
2023-04-11T03:53:17.679Z,7.09
2023-04-11T03:55:52.823Z,7.24
2023-04-11T03:58:27.212Z,7.17
2023-04-11T04:01:00.723Z,7.31
2023-04-11T04:03:34.503Z,7.06
2023-04-11T04:06:07.853Z,7.22
2023-04-11T04:08:40.940Z,7.17
2023-04-11T04:11:14.299Z,7.12
2023-04-11T04:13:49.164Z,7.15
2023-04-11T04:16:22.626Z,7.09
2023-04-11T04:18:56.108Z,7.06
2023-04-11T04:21:32.878Z,7.17
2023-04-11T04:24:06.657Z,7.00
2023-04-11T04:26:39.838Z,7.02
2023-04-11T04:29:14.131Z,6.99
2023-04-11T04:31:50.659Z,7.03
2023-04-11T04:34:24.563Z,7.09
2023-04-11T04:36:59.719Z,7.07
2023-04-11T04:39:34.120Z,7.05
2023-04-11T04:42:08.140Z,7.10
2023-04-11T04:44:42.792Z,7.06
2023-04-11T04:47:16.070Z,6.99
2023-04-11T04:49:49.602Z,6.95
2023-04-11T04:52:24.512Z,7.02
2023-04-11T04:54:58.946Z,6.98
2023-04-11T04:57:32.642Z,7.00
2023-04-11T05:00:11.838Z,6.98
2023-04-11T05:02:45.239Z,7.11
2023-04-11T05:05:18.328Z,7.08
2023-04-11T05:07:51.284Z,6.88
2023-04-11T05:10:24.557Z,7.06
2023-04-11T05:12:58.516Z,7.04
2023-04-11T05:15:33.364Z,6.89
2023-04-11T05:18:06.658Z,7.07
2023-04-11T05:20:40.132Z,7.06
2023-04-11T05:23:13.420Z,6.93
2023-04-11T05:25:46.415Z,7.06
2023-04-11T05:28:19.339Z,7.12
2023-04-11T05:30:53.732Z,7.03
2023-04-11T05:33:27.854Z,6.99
2023-04-11T05:36:01.215Z,7.04
2023-04-11T05:38:34.506Z,7.16
2023-04-11T05:41:07.615Z,7.18
2023-04-11T05:43:40.799Z,7.17
2023-04-11T05:46:15.601Z,7.19
2023-04-11T05:48:48.884Z,7.28
2023-04-11T05:51:22.150Z,7.20
2023-04-11T05:53:55.618Z,7.29
2023-04-11T05:56:28.919Z,7.24
2023-04-11T05:59:01.884Z,7.34
2023-04-11T06:01:39.830Z,7.38
2023-04-11T06:04:13.186Z,7.28
2023-04-11T06:06:46.258Z,7.30
2023-04-11T06:09:19.292Z,7.30
2023-04-11T06:11:53.659Z,7.39
2023-04-11T06:14:26.657Z,7.40
2023-04-11T06:17:01.290Z,7.41
2023-04-11T06:19:34.490Z,7.46
2023-04-11T06:22:07.709Z,7.48
2023-04-11T06:24:41.579Z,7.52
2023-04-11T06:27:14.952Z,7.06
2023-04-11T06:29:47.970Z,7.64
2023-04-11T06:32:22.756Z,7.64
2023-04-11T06:34:56.096Z,7.60
2023-04-11T06:37:29.277Z,7.62
2023-04-11T06:40:02.161Z,7.54
2023-04-11T06:42:35.441Z,7.59
2023-04-11T06:45:10.110Z,7.61
2023-04-11T06:47:45.210Z,7.62
2023-04-11T06:50:18.640Z,7.65
2023-04-11T06:52:51.648Z,7.70
2023-04-11T06:55:24.914Z,7.61
2023-04-11T06:57:57.883Z,7.62
2023-04-11T07:00:30.937Z,7.66
2023-04-11T07:03:08.343Z,7.61
2023-04-11T07:05:41.792Z,7.72
2023-04-11T07:08:15.026Z,7.69
2023-04-11T07:10:48.202Z,7.59
2023-04-11T07:13:22.046Z,7.68
2023-04-11T07:15:56.491Z,7.72
2023-04-11T07:18:31.255Z,7.71
2023-04-11T07:21:04.147Z,7.76
2023-04-11T07:23:37.326Z,7.76
2023-04-11T07:26:11.023Z,7.81
2023-04-11T07:28:44.275Z,7.87
2023-04-11T07:31:19.756Z,7.96
2023-04-11T07:33:54.647Z,7.92
2023-04-11T07:36:28.072Z,8.04
2023-04-11T07:39:01.295Z,8.01
2023-04-11T07:41:34.305Z,7.98
2023-04-11T07:44:09.430Z,8.04
2023-04-11T07:46:42.801Z,8.07
2023-04-11T07:49:17.217Z,8.16
2023-04-11T07:51:50.310Z,8.16
2023-04-11T07:54:25.338Z,8.18
2023-04-11T07:56:58.335Z,8.17
2023-04-11T07:59:31.734Z,8.21
2023-04-11T08:02:08.180Z,8.23
2023-04-11T08:04:42.821Z,8.28
2023-04-11T08:07:16.074Z,8.24
2023-04-11T08:09:49.175Z,8.31
2023-04-11T08:12:22.977Z,8.37
2023-04-11T08:14:56.583Z,8.35
2023-04-11T08:17:30.260Z,8.37
2023-04-11T08:20:09.141Z,8.42
2023-04-11T08:22:44.837Z,8.48
2023-04-11T08:25:19.757Z,8.49
2023-04-11T08:27:53.412Z,8.52
2023-04-11T08:30:27.471Z,8.66
2023-04-11T08:33:00.858Z,8.79
2023-04-11T08:35:35.323Z,8.86
2023-04-11T08:38:08.353Z,8.89
2023-04-11T08:40:41.528Z,8.85
2023-04-11T08:43:14.640Z,8.94
2023-04-11T08:45:47.827Z,9.03
2023-04-11T08:48:25.054Z,9.14
2023-04-11T08:50:59.482Z,9.21
2023-04-11T08:53:36.760Z,9.29
2023-04-11T08:56:15.582Z,9.41
2023-04-11T08:58:49.272Z,9.54
2023-04-11T09:01:29.726Z,9.69
2023-04-11T09:04:05.223Z,9.73
2023-04-11T09:06:40.341Z,9.80
2023-04-11T09:09:29.009Z,9.88
2023-04-11T09:12:03.668Z,10.02
2023-04-11T09:14:37.485Z,10.03
2023-04-11T09:17:13.683Z,10.07
2023-04-11T09:19:49.200Z,10.07
2023-04-11T09:22:36.045Z,10.02
2023-04-11T09:25:09.378Z,9.99
2023-04-11T09:27:42.673Z,10.04
2023-04-11T09:30:22.561Z,10.10
2023-04-11T09:32:56.189Z,10.15
2023-04-11T09:35:29.467Z,10.16
2023-04-11T09:38:09.272Z,10.17
2023-04-11T09:40:44.364Z,10.27
2023-04-11T09:43:19.909Z,10.32
2023-04-11T09:46:09.784Z,10.35
2023-04-11T09:49:00.868Z,10.37
2023-04-11T09:51:36.820Z,10.35
2023-04-11T09:54:12.154Z,10.38
2023-04-11T09:56:45.526Z,10.43
2023-04-11T09:59:19.542Z,10.54
2023-04-11T10:01:52.870Z,10.53
2023-04-11T10:04:28.182Z,10.51
2023-04-11T10:07:07.697Z,10.54
2023-04-11T10:09:43.240Z,10.66
2023-04-11T10:12:31.685Z,10.77
2023-04-11T10:15:08.364Z,10.83
2023-04-11T10:17:42.797Z,10.83
2023-04-11T10:20:34.546Z,10.89
2023-04-11T10:23:07.666Z,11.00
2023-04-11T10:25:55.490Z,10.95
2023-04-11T10:28:32.558Z,11.01
2023-04-11T10:31:10.252Z,11.25
2023-04-11T10:34:08.147Z,11.24
2023-04-11T10:36:55.979Z,11.29
2023-04-11T10:39:43.789Z,11.24
2023-04-11T10:42:31.662Z,11.33
2023-04-11T10:45:18.237Z,11.25
2023-04-11T10:48:12.910Z,11.32
2023-04-11T10:50:45.980Z,11.24
2023-04-11T10:53:36.260Z,11.36
2023-04-11T10:56:09.345Z,11.37
2023-04-11T10:58:43.795Z,11.36
2023-04-11T11:01:31.364Z,11.45
2023-04-11T11:04:10.939Z,11.55
2023-04-11T11:06:51.155Z,11.50
2023-04-11T11:09:28.874Z,11.56
2023-04-11T11:12:09.039Z,11.52
2023-04-11T11:14:44.956Z,11.41
2023-04-11T11:17:18.957Z,11.43
2023-04-11T11:19:52.080Z,11.41
2023-04-11T11:22:26.470Z,11.35
2023-04-11T11:25:08.248Z,11.23
2023-04-11T11:27:42.157Z,11.08
2023-04-11T11:30:18.245Z,11.06
2023-04-11T11:32:51.126Z,11.07
2023-04-11T11:35:24.678Z,11.07
2023-04-11T11:37:57.662Z,11.05
2023-04-11T11:40:30.728Z,11.10
2023-04-11T11:43:04.064Z,11.14
2023-04-11T11:45:38.786Z,11.11
2023-04-11T11:48:20.826Z,11.01
2023-04-11T11:50:57.864Z,11.03
2023-04-11T11:53:31.479Z,11.00
2023-04-11T11:56:15.606Z,11.03
2023-04-11T11:58:49.432Z,11.04
2023-04-11T12:01:23.949Z,11.03
2023-04-11T12:03:58.229Z,11.06
2023-04-11T12:06:32.638Z,11.04
2023-04-11T12:09:08.595Z,11.06
2023-04-11T12:11:42.345Z,11.03
2023-04-11T12:14:23.238Z,11.01
2023-04-11T12:16:57.980Z,11.10
2023-04-11T12:19:31.246Z,11.16
2023-04-11T12:22:04.790Z,11.25
2023-04-11T12:24:37.744Z,11.20
2023-04-11T12:27:12.719Z,11.22
2023-04-11T12:29:46.818Z,11.26
2023-04-11T12:32:21.529Z,11.24
2023-04-11T12:34:54.674Z,11.35
2023-04-11T12:37:27.797Z,11.37
2023-04-11T12:40:00.976Z,11.34
2023-04-11T12:42:39.144Z,11.37
2023-04-11T12:45:18.654Z,11.42
2023-04-11T12:47:53.318Z,11.42
2023-04-11T12:50:26.591Z,11.33
2023-04-11T12:52:59.816Z,11.35
2023-04-11T12:55:34.943Z,11.50
2023-04-11T12:58:09.391Z,11.42
2023-04-11T13:00:42.277Z,11.42
2023-04-11T13:03:17.344Z,11.52
2023-04-11T13:05:50.879Z,11.61
2023-04-11T13:08:24.048Z,11.51
2023-04-11T13:10:57.041Z,11.53
2023-04-11T13:13:31.683Z,11.56
2023-04-11T13:16:06.609Z,11.47
2023-04-11T13:18:41.040Z,11.58
2023-04-11T13:21:14.354Z,11.53
2023-04-11T13:23:47.687Z,11.55
2023-04-11T13:26:21.419Z,11.53
2023-04-11T13:28:54.722Z,11.45
2023-04-11T13:31:28.859Z,11.35
2023-04-11T13:34:03.552Z,11.43
2023-04-11T13:36:37.000Z,11.29
2023-04-11T13:39:10.208Z,11.31
2023-04-11T13:41:43.554Z,11.27
2023-04-11T13:44:16.533Z,11.32
2023-04-11T13:46:49.638Z,11.26
2023-04-11T13:49:24.741Z,11.18
2023-04-11T13:51:58.150Z,11.12
2023-04-11T13:54:31.371Z,11.15
2023-04-11T13:57:07.708Z,11.08
2023-04-11T13:59:41.043Z,11.01
2023-04-11T14:02:14.016Z,10.99
2023-04-11T14:04:49.471Z,10.97
2023-04-11T14:07:23.344Z,10.98
2023-04-11T14:09:57.284Z,10.91
2023-04-11T14:12:31.594Z,10.91
2023-04-11T14:15:05.620Z,10.94
2023-04-11T14:17:38.841Z,10.87
2023-04-11T14:20:14.050Z,10.85
2023-04-11T14:22:47.056Z,10.76
2023-04-11T14:25:20.051Z,10.77
2023-04-11T14:27:53.353Z,10.73
2023-04-11T14:30:26.789Z,10.72
2023-04-11T14:33:00.300Z,10.71
2023-04-11T14:35:35.941Z,10.74
2023-04-11T14:38:08.916Z,10.67
2023-04-11T14:40:42.240Z,10.68
2023-04-11T14:43:15.090Z,10.66
2023-04-11T14:45:48.814Z,10.61
2023-04-11T14:48:28.911Z,10.67
2023-04-11T14:51:05.136Z,10.71
2023-04-11T14:53:38.051Z,10.61
2023-04-11T14:56:11.655Z,10.63
2023-04-11T14:58:44.753Z,10.57
2023-04-11T15:01:18.226Z,10.62
2023-04-11T15:03:51.563Z,10.71
2023-04-11T15:06:26.705Z,10.67
2023-04-11T15:09:01.302Z,10.66
2023-04-11T15:11:34.377Z,10.57
2023-04-11T15:14:07.797Z,10.59
2023-04-11T15:16:41.959Z,10.62
2023-04-11T15:19:15.094Z,10.67
2023-04-11T15:21:49.521Z,10.59
2023-04-11T15:24:22.513Z,10.52
2023-04-11T15:26:56.863Z,10.54
2023-04-11T15:29:30.011Z,10.49
2023-04-11T15:32:03.411Z,10.56
2023-04-11T15:34:37.220Z,10.65
2023-04-11T15:37:13.315Z,10.74
2023-04-11T15:39:46.354Z,10.73
2023-04-11T15:42:19.422Z,10.71
2023-04-11T15:44:52.628Z,10.68
2023-04-11T15:47:26.154Z,10.67
2023-04-11T15:50:01.936Z,10.69
2023-04-11T15:52:36.506Z,10.69
2023-04-11T15:55:09.707Z,10.68
2023-04-11T15:57:43.044Z,10.61
2023-04-11T16:00:16.674Z,10.59
2023-04-11T16:02:50.534Z,10.57
2023-04-11T16:05:24.020Z,10.52
2023-04-11T16:07:58.772Z,10.47
2023-04-11T16:10:31.793Z,10.47
2023-04-11T16:13:05.411Z,10.45
2023-04-11T16:15:39.375Z,10.39
2023-04-11T16:18:13.661Z,10.39
2023-04-11T16:20:46.797Z,10.33
2023-04-11T16:23:21.640Z,10.36
2023-04-11T16:25:54.992Z,10.32
2023-04-11T16:28:28.204Z,10.28
2023-04-11T16:31:01.502Z,10.27
2023-04-11T16:33:34.994Z,10.22
2023-04-11T16:36:08.305Z,10.17
2023-04-11T16:38:43.111Z,10.19
2023-04-11T16:41:16.413Z,10.17
2023-04-11T16:43:49.727Z,10.22
2023-04-11T16:46:23.006Z,10.16
2023-04-11T16:48:56.293Z,10.06
2023-04-11T16:51:29.601Z,10.07
2023-04-11T16:54:06.281Z,10.01
2023-04-11T16:56:39.361Z,9.94
2023-04-11T16:59:12.722Z,10.00
2023-04-11T17:01:45.924Z,9.99
2023-04-11T17:04:19.227Z,9.94
2023-04-11T17:06:52.420Z,9.84
2023-04-11T17:09:27.016Z,9.82
2023-04-11T17:12:02.478Z,9.89
2023-04-11T17:14:36.606Z,9.90
2023-04-11T17:17:10.223Z,9.86
2023-04-11T17:19:43.590Z,9.64
2023-04-11T17:22:17.264Z,9.60
2023-04-11T17:24:51.876Z,9.68
2023-04-11T17:27:25.145Z,9.82
2023-04-11T17:29:58.436Z,9.81
2023-04-11T17:32:31.634Z,9.79
2023-04-11T17:35:05.905Z,9.61
2023-04-11T17:37:39.872Z,9.56
2023-04-11T17:40:15.310Z,9.63
2023-04-11T17:42:48.625Z,9.72
2023-04-11T17:45:21.684Z,9.74
2023-04-11T17:47:54.957Z,9.48
2023-04-11T17:50:28.155Z,9.57
2023-04-11T17:53:01.775Z,9.55
2023-04-11T17:55:36.379Z,9.47
2023-04-11T17:58:10.156Z,9.49
2023-04-11T18:00:54.799Z,9.63
2023-04-11T18:03:34.728Z,9.65
2023-04-11T18:06:08.848Z,9.67
2023-04-11T18:11:19.248Z,9.56
2023-04-11T18:13:52.823Z,9.51
2023-04-11T18:16:26.320Z,9.46
2023-04-11T18:19:00.980Z,9.38
2023-04-11T18:21:34.074Z,9.51
2023-04-11T18:24:07.283Z,9.45
2023-04-11T18:26:41.565Z,9.42
2023-04-11T18:29:14.557Z,9.43
2023-04-11T18:31:47.747Z,9.43
2023-04-11T18:34:21.115Z,9.32
2023-04-11T18:36:54.503Z,9.40
2023-04-11T18:39:27.592Z,9.51
2023-04-11T18:42:03.785Z,9.46
2023-04-11T18:44:36.921Z,9.35
2023-04-11T18:47:11.727Z,9.37
2023-04-11T18:49:45.166Z,9.17
2023-04-11T18:52:18.166Z,9.17
2023-04-11T18:54:51.407Z,9.41
2023-04-11T18:57:28.891Z,9.37
2023-04-11T19:00:13.160Z,9.39
2023-04-11T19:02:50.432Z,9.46
2023-04-11T19:05:25.489Z,9.41
2023-04-11T19:08:00.630Z,9.35
2023-04-11T19:10:33.941Z,9.40
2023-04-11T19:13:09.269Z,9.43
2023-04-11T19:15:42.704Z,9.43
2023-04-11T19:18:16.048Z,9.35
2023-04-11T19:20:49.202Z,9.39
2023-04-11T19:23:22.543Z,9.33
2023-04-11T19:25:56.752Z,9.38
2023-04-11T19:28:31.059Z,9.43
2023-04-11T19:31:04.541Z,9.56
2023-04-11T19:33:39.130Z,9.72
2023-04-11T19:36:13.504Z,9.85
2023-04-11T19:38:47.177Z,9.86
2023-04-11T19:41:20.667Z,10.09
2023-04-11T19:43:56.427Z,10.16
2023-04-11T19:46:30.246Z,10.14
2023-04-11T19:49:03.753Z,10.12
2023-04-11T19:51:37.357Z,10.19
2023-04-11T19:54:10.926Z,10.30
2023-04-11T19:56:45.550Z,10.28
2023-04-11T19:59:20.024Z,10.24
2023-04-11T20:01:54.465Z,10.11
2023-04-11T20:04:28.534Z,10.09
2023-04-11T20:07:03.602Z,10.07
2023-04-11T20:09:36.814Z,10.02
2023-04-11T20:12:11.798Z,10.00
2023-04-11T20:14:46.903Z,9.98
2023-04-11T20:17:20.129Z,9.99
2023-04-11T20:19:54.652Z,9.99
2023-04-11T20:22:27.838Z,10.01
2023-04-11T20:25:01.006Z,9.97
2023-04-11T20:27:34.306Z,10.00
2023-04-11T20:30:10.841Z,9.96
2023-04-11T20:32:44.554Z,9.98
2023-04-11T20:35:19.359Z,10.00
2023-04-11T20:37:54.182Z,9.98
2023-04-11T20:40:27.491Z,9.93
2023-04-11T20:43:02.093Z,9.92
2023-04-11T20:45:37.955Z,9.86
2023-04-11T20:48:13.015Z,9.91
2023-04-11T20:50:47.124Z,9.92
2023-04-11T20:53:20.050Z,9.84
2023-04-11T20:55:52.928Z,9.85
2023-04-11T20:58:27.717Z,9.80
2023-04-11T21:01:02.529Z,9.71
2023-04-11T21:03:37.643Z,9.74
2023-04-11T21:06:10.965Z,9.64
2023-04-11T21:08:44.330Z,9.67
2023-04-11T21:11:17.549Z,9.65
2023-04-11T21:13:51.533Z,9.69
2023-04-11T21:16:26.241Z,9.69
2023-04-11T21:18:59.631Z,9.65
2023-04-11T21:21:33.593Z,9.67
2023-04-11T21:24:08.433Z,9.65
2023-04-11T21:26:42.414Z,9.61
2023-04-11T21:29:16.146Z,9.56
2023-04-11T21:31:50.840Z,9.54
2023-04-11T21:34:23.992Z,9.57
2023-04-11T21:36:58.246Z,9.58
2023-04-11T21:39:31.555Z,9.58
2023-04-11T21:42:05.095Z,9.50
2023-04-11T21:44:38.225Z,9.50
2023-04-11T21:47:12.725Z,9.49
2023-04-11T21:49:47.331Z,9.51
2023-04-11T21:52:20.599Z,9.38
2023-04-11T21:54:53.694Z,9.37
2023-04-11T21:57:27.181Z,9.37
2023-04-11T22:00:00.590Z,9.32
2023-04-11T22:02:36.877Z,9.40
2023-04-11T22:05:10.323Z,9.36
2023-04-11T22:07:49.309Z,9.41
2023-04-11T22:10:28.709Z,9.40
2023-04-11T22:13:09.094Z,9.45
2023-04-11T22:15:42.661Z,9.50
2023-04-11T22:18:17.541Z,9.53
2023-04-11T22:20:50.881Z,9.63
2023-04-11T22:23:25.163Z,9.67
2023-04-11T22:25:59.384Z,9.75
2023-04-11T22:28:33.370Z,9.78
2023-04-11T22:31:06.846Z,9.86
2023-04-11T22:33:41.535Z,10.02
2023-04-11T22:36:14.468Z,9.99
2023-04-11T22:38:47.655Z,9.99
2023-04-11T22:41:22.046Z,10.06
2023-04-11T22:43:55.554Z,10.05
2023-04-11T22:46:31.032Z,10.04
2023-04-11T22:49:06.531Z,10.09
2023-04-11T22:51:40.846Z,10.11
2023-04-11T22:54:15.652Z,10.17
2023-04-11T22:56:55.177Z,10.19
2023-04-11T22:59:28.438Z,10.25
2023-04-11T23:02:01.750Z,10.24
2023-04-11T23:04:36.586Z,10.31
2023-04-11T23:07:10.370Z,10.32
2023-04-11T23:09:44.836Z,10.31
2023-04-11T23:12:19.839Z,10.34
2023-04-11T23:14:53.378Z,10.29
2023-04-11T23:17:27.462Z,10.25
2023-04-11T23:20:01.851Z,10.33
2023-04-11T23:22:34.943Z,10.26
2023-04-11T23:25:08.401Z,10.24
2023-04-11T23:27:42.900Z,10.22
2023-04-11T23:30:17.426Z,10.22
2023-04-11T23:32:50.640Z,10.24
2023-04-11T23:35:25.000Z,10.26
2023-04-11T23:37:59.970Z,10.28
2023-04-11T23:40:33.611Z,10.29
2023-04-11T23:43:06.698Z,10.21
2023-04-11T23:45:39.808Z,10.20
2023-04-11T23:48:12.784Z,10.16
2023-04-11T23:50:47.843Z,10.16
2023-04-11T23:53:21.188Z,10.14
2023-04-11T23:55:54.642Z,10.18
2023-04-11T23:58:27.707Z,10.16
